עמוד ראשי
METAR-TAF:

METAR-TAF

שדות תעופה :

אל-עין, איחוד האמירויות הערביות

קו רוחב: 24-16N, קו אורך: 055-36E, גובה: 265מטר

תצפית מזג אוויר נוכחית

הדו"ח נערך לפני 44דקות, בשעה 20:00 UTC
רוח 4קשר מכיוון צפון
טמפרטורת 34 צלסיוס
לחות 20%
לחץ 1003 hPa
ראות 10 קילומטר או יותר
ללא עננים שבסיסם נמוך מ 5000 רגל או קומולונימבוס

METAR: OMAL 132000Z 01004KT CAVOK 34/08 Q1003 NOSIG

זמן: 00:44 (20:44 UTC)

תחזית

הדו"ח נערך לפני 3 שעות ו 44דקות, בשעה 17:00 UTC
תחזית בתוקף מ 13 ב 18 UTC עד 15 ב 00 UTC
רוח 5קשר מכיוון צפון
ראות: 8000מטר
יעשה מ
13 ב 18 UTC עד 13 ב 20 UTC
רוח 5קשר מכיוון דרום
יעשה מ
14 ב 05 UTC עד 14 ב 07 UTC
רוח 12קשר מכיוון צפון-מערב
הסתברות 30% :
זמנית מ -
14 ב 07 UTC עד 14 ב 15 UTC
רוח 15קשר מכיוון צפון/צפון-מערב עם משבים עד 25קשר
ראות: 4000מטר
אבק נושב
יעשה מ
14 ב 17 UTC עד 14 ב 19 UTC
רוח 6קשר מכיוון מזרח/צפון-מזרח

TAF: OMAL 131700Z 1318/1500 36005KT 8000 NSC BECMG 1318/1320 18005KT BECMG 1405/1407 31012KT PROB30 TEMPO 1407/1415 33015G25KT 4000 BLDU BECMG 1417/1419 07006KT

תצפיות ותחזיות מזג אוויר לגבי יותר מ- 4,000 שדות תעופה ברחבי העולם. דוחות METAR ו- TAF.

התחנות הזמינות מסומנות בנקודות צהובות ואדומות על גבי המפה.

העבר את העכבר לנקודה הצבעונית על מנת לראות את שם התחנה.

לאחר מכן, לחץ כדי לראות את תוכן ואת תחזיות מזג האוויר.

כדי לשנות את המפה: לחץ על הכפתורים הירוקים עם הפלוס השחור כדי להתקרב; על הכפתור הירוק עם המקף כדי להתרחק; או בחיצים הירוקים למפות סמוכות.


METAR-TAF: